createdAt,value
2023-05-09T00:03:53.774Z,2.78
2023-05-09T00:08:56.668Z,2.66
2023-05-09T00:13:59.453Z,2.52
2023-05-09T00:19:03.536Z,2.40
2023-05-09T00:24:06.648Z,2.29
2023-05-09T00:29:09.443Z,2.17
2023-05-09T00:34:12.291Z,2.06
2023-05-09T00:39:15.197Z,1.94
2023-05-09T00:44:18.156Z,1.84
2023-05-09T00:49:20.971Z,1.77
2023-05-09T00:54:23.842Z,1.76
2023-05-09T00:59:27.475Z,1.79
2023-05-09T01:04:30.562Z,1.83
2023-05-09T01:09:58.436Z,1.81
2023-05-09T01:15:08.851Z,1.71
2023-05-09T01:20:47.607Z,1.60
2023-05-09T01:26:04.625Z,1.49
2023-05-09T01:31:09.705Z,1.46
2023-05-09T01:36:18.138Z,1.46
2023-05-09T01:41:23.439Z,1.41
2023-05-09T01:46:27.653Z,1.33
2023-05-09T01:51:31.840Z,1.21
2023-05-09T01:56:36.532Z,1.07
2023-05-09T02:01:39.429Z,0.95
2023-05-09T02:06:44.846Z,0.89
2023-05-09T02:11:47.805Z,0.89
2023-05-09T02:16:51.491Z,0.89
2023-05-09T02:21:54.333Z,0.87
2023-05-09T02:26:57.676Z,0.83
2023-05-09T02:32:01.494Z,0.76
2023-05-09T02:37:05.270Z,0.75
2023-05-09T02:42:18.746Z,0.77
2023-05-09T02:47:21.972Z,0.75
2023-05-09T02:52:24.918Z,0.73
2023-05-09T02:57:27.819Z,0.65
2023-05-09T03:02:31.042Z,0.63
2023-05-09T03:07:34.390Z,0.63
2023-05-09T03:12:38.725Z,0.61
2023-05-09T03:17:41.872Z,0.57
2023-05-09T03:22:44.787Z,0.57
2023-05-09T03:27:47.572Z,0.58
2023-05-09T03:32:50.465Z,0.62
2023-05-09T03:37:53.324Z,0.68
2023-05-09T03:42:56.196Z,0.74
2023-05-09T03:47:59.427Z,0.82
2023-05-09T03:53:02.551Z,1.00
2023-05-09T03:58:05.391Z,1.23
2023-05-09T04:03:08.437Z,1.48
2023-05-09T04:08:11.570Z,1.74
2023-05-09T04:13:14.424Z,2.00
2023-05-09T04:18:17.369Z,2.23
2023-05-09T04:23:20.180Z,2.45
2023-05-09T04:28:23.106Z,2.66
2023-05-09T04:33:25.990Z,2.90
2023-05-09T04:38:28.776Z,3.17
2023-05-09T04:43:32.724Z,3.46
2023-05-09T04:48:35.976Z,3.78
2023-05-09T04:53:38.968Z,4.12
2023-05-09T04:58:41.792Z,4.46
2023-05-09T05:03:46.309Z,4.83
2023-05-09T05:08:49.136Z,5.22
2023-05-09T05:13:52.069Z,5.61
2023-05-09T05:18:54.900Z,6.01
2023-05-09T05:23:57.700Z,6.38
2023-05-09T05:29:00.978Z,6.75
2023-05-09T05:34:03.669Z,7.12
2023-05-09T05:39:06.561Z,7.49
2023-05-09T05:44:09.546Z,7.82
2023-05-09T05:49:12.395Z,8.14
2023-05-09T05:54:15.252Z,8.51
2023-05-09T05:59:18.070Z,8.89
2023-05-09T06:04:21.440Z,9.27
2023-05-09T06:09:24.310Z,9.62
2023-05-09T06:14:27.212Z,9.96
2023-05-09T06:19:30.049Z,10.30
2023-05-09T06:24:36.212Z,10.64
2023-05-09T06:29:39.512Z,10.94
2023-05-09T06:34:42.397Z,11.27
2023-05-09T06:39:46.274Z,11.59
2023-05-09T06:44:49.187Z,11.88
2023-05-09T06:49:52.122Z,12.14
2023-05-09T06:54:55.150Z,12.44
2023-05-09T06:59:57.844Z,12.74
2023-05-09T07:05:00.813Z,13.03
2023-05-09T07:10:11.440Z,13.29
2023-05-09T07:15:22.941Z,13.59
2023-05-09T07:20:36.400Z,13.87
2023-05-09T07:25:39.746Z,14.11
2023-05-09T07:30:43.788Z,14.29
2023-05-09T07:35:46.752Z,14.41
2023-05-09T07:40:49.484Z,14.53
2023-05-09T07:45:52.311Z,14.63
2023-05-09T07:50:55.159Z,14.80
2023-05-09T07:55:59.594Z,14.89
2023-05-09T08:01:02.711Z,15.01
2023-05-09T08:06:05.596Z,15.22
2023-05-09T08:11:08.412Z,15.29
2023-05-09T08:16:11.780Z,15.39
2023-05-09T08:21:14.618Z,15.50
2023-05-09T08:26:17.348Z,15.56
2023-05-09T08:31:20.357Z,15.59
2023-05-09T08:36:23.484Z,15.77
2023-05-09T08:41:29.580Z,15.96
2023-05-09T08:46:37.164Z,16.22
2023-05-09T08:51:41.051Z,16.50
2023-05-09T08:56:43.941Z,16.52
2023-05-09T09:01:48.025Z,16.55
2023-05-09T09:06:52.204Z,16.61
2023-05-09T09:11:56.983Z,16.70
2023-05-09T09:17:01.196Z,16.85
2023-05-09T09:22:05.076Z,16.95
2023-05-09T09:27:08.525Z,17.00
2023-05-09T09:32:11.749Z,16.97
2023-05-09T09:37:24.311Z,17.15
2023-05-09T09:42:27.145Z,17.29
2023-05-09T09:47:33.274Z,17.36
2023-05-09T09:52:36.730Z,17.56
2023-05-09T09:57:41.808Z,17.69
2023-05-09T10:02:54.930Z,17.75
2023-05-09T10:07:59.419Z,17.86
2023-05-09T10:13:09.678Z,17.90
2023-05-09T10:18:18.502Z,17.87
2023-05-09T10:23:23.612Z,17.95
2023-05-09T10:28:32.097Z,18.02
2023-05-09T10:33:42.749Z,18.12
2023-05-09T10:38:47.387Z,18.19
2023-05-09T10:43:50.425Z,18.21
2023-05-09T10:48:55.225Z,18.33
2023-05-09T10:53:58.851Z,18.41
2023-05-09T10:59:02.347Z,18.48
2023-05-09T11:04:13.152Z,18.55
2023-05-09T11:09:27.108Z,18.60
2023-05-09T11:14:42.553Z,18.81
2023-05-09T11:19:45.574Z,18.90
2023-05-09T11:24:50.977Z,18.99
2023-05-09T11:29:59.621Z,19.14
2023-05-09T11:35:17.889Z,19.19
2023-05-09T11:40:22.960Z,19.29
2023-05-09T11:45:28.691Z,19.37
2023-05-09T11:50:31.697Z,19.42
2023-05-09T11:55:38.190Z,19.52
2023-05-09T12:00:47.707Z,19.66
2023-05-09T12:05:51.098Z,19.78
2023-05-09T12:10:54.071Z,19.82
2023-05-09T12:16:02.691Z,19.96
2023-05-09T12:21:07.228Z,20.11
2023-05-09T12:26:11.077Z,20.06
2023-05-09T12:31:14.706Z,20.12
2023-05-09T12:36:18.840Z,20.23
2023-05-09T12:46:33.837Z,20.65
2023-05-09T12:51:37.917Z,20.85
2023-05-09T12:56:41.027Z,20.96
2023-05-09T13:01:44.520Z,21.01
2023-05-09T13:06:52.384Z,21.09
2023-05-09T13:11:55.468Z,21.22
2023-05-09T13:16:58.456Z,21.39
2023-05-09T13:22:02.097Z,21.55
2023-05-09T13:27:05.803Z,21.58
2023-05-09T13:32:08.895Z,21.60
2023-05-09T13:37:11.770Z,21.71
2023-05-09T13:42:14.600Z,21.78
2023-05-09T13:47:17.467Z,21.72
2023-05-09T13:52:20.314Z,22.23
2023-05-09T13:57:23.154Z,23.00
2023-05-09T14:02:26.133Z,23.92
2023-05-09T14:07:29.370Z,24.65
2023-05-09T14:12:32.796Z,25.24
2023-05-09T14:17:35.888Z,25.73
2023-05-09T14:22:38.806Z,26.02
2023-05-09T14:27:42.096Z,26.50
2023-05-09T14:32:45.498Z,27.01
2023-05-09T14:37:48.377Z,27.31
2023-05-09T14:42:51.333Z,27.40
2023-05-09T14:47:54.251Z,27.65
2023-05-09T14:52:57.415Z,28.07
2023-05-09T14:58:00.255Z,28.70
2023-05-09T15:03:03.267Z,29.20
2023-05-09T15:08:07.133Z,29.51
2023-05-09T15:13:11.473Z,29.69
2023-05-09T15:18:16.561Z,29.93
2023-05-09T15:23:19.460Z,30.23
2023-05-09T15:28:22.459Z,30.53
2023-05-09T15:33:25.583Z,31.06
2023-05-09T15:38:28.643Z,31.49
2023-05-09T15:43:31.509Z,31.91
2023-05-09T15:48:34.307Z,32.21
2023-05-09T15:53:37.195Z,32.53
2023-05-09T15:58:40.478Z,32.83
2023-05-09T16:03:43.522Z,32.63
2023-05-09T16:08:46.597Z,32.65
2023-05-09T16:13:49.528Z,32.67
2023-05-09T16:18:52.720Z,32.91
2023-05-09T16:23:58.002Z,33.07
2023-05-09T16:29:02.150Z,33.41
2023-05-09T16:34:05.020Z,33.80
2023-05-09T16:39:07.852Z,34.03
2023-05-09T16:44:10.876Z,33.77
2023-05-09T16:49:17.743Z,33.76
2023-05-09T16:54:21.517Z,33.65
2023-05-09T16:59:24.343Z,33.24
2023-05-09T17:04:27.726Z,32.93
2023-05-09T17:09:30.622Z,32.74
2023-05-09T17:14:33.479Z,32.54
2023-05-09T17:19:36.823Z,32.01
2023-05-09T17:24:39.663Z,31.22
2023-05-09T17:29:42.527Z,29.68
2023-05-09T17:34:45.329Z,28.54
2023-05-09T17:39:48.156Z,26.86
2023-05-09T17:44:51.096Z,24.50
2023-05-09T17:49:53.909Z,22.58
2023-05-09T17:54:56.811Z,21.13
2023-05-09T18:00:00.499Z,19.96
2023-05-09T18:05:03.424Z,18.95
2023-05-09T18:10:07.955Z,18.35
2023-05-09T18:15:11.201Z,17.43
2023-05-09T18:20:14.311Z,16.55
2023-05-09T18:25:17.437Z,15.77
2023-05-09T18:30:21.995Z,15.05
2023-05-09T18:35:25.028Z,14.36
2023-05-09T18:40:28.540Z,13.75
2023-05-09T18:45:31.330Z,13.21
2023-05-09T18:50:34.305Z,12.72
2023-05-09T18:55:37.148Z,12.29
2023-05-09T19:00:40.266Z,11.89
2023-05-09T19:05:44.087Z,11.52
2023-05-09T19:10:46.895Z,11.17
2023-05-09T19:15:50.285Z,10.84
2023-05-09T19:20:53.116Z,10.55
2023-05-09T19:25:55.988Z,10.29
2023-05-09T19:30:59.146Z,10.04
2023-05-09T19:36:01.927Z,9.79
2023-05-09T19:41:04.806Z,9.56
2023-05-09T19:46:07.756Z,9.32
2023-05-09T19:51:12.576Z,9.09
2023-05-09T19:56:15.752Z,8.84
2023-05-09T20:01:19.536Z,8.61
2023-05-09T20:11:42.893Z,8.17
2023-05-09T20:16:45.798Z,7.97
2023-05-09T20:21:48.625Z,7.78
2023-05-09T20:26:51.557Z,7.59
2023-05-09T20:31:54.373Z,7.40
2023-05-09T20:36:57.095Z,7.22
2023-05-09T20:42:02.529Z,7.05
2023-05-09T20:47:05.975Z,6.90
2023-05-09T20:52:08.783Z,6.77
2023-05-09T20:57:11.523Z,6.62
2023-05-09T21:02:14.333Z,6.48
2023-05-09T21:07:20.058Z,6.32
2023-05-09T21:12:23.135Z,6.16
2023-05-09T21:17:26.232Z,5.99
2023-05-09T21:22:29.221Z,5.85
2023-05-09T21:27:32.007Z,5.71
2023-05-09T21:32:34.836Z,5.56
2023-05-09T21:37:37.672Z,5.44
2023-05-09T21:42:41.238Z,5.29
2023-05-09T21:47:44.077Z,5.16
2023-05-09T21:52:47.037Z,5.06
2023-05-09T21:57:49.802Z,4.98
2023-05-09T22:02:52.664Z,4.89
2023-05-09T22:07:55.660Z,4.80
2023-05-09T22:12:58.477Z,4.70
2023-05-09T22:18:01.464Z,4.61
2023-05-09T22:23:04.350Z,4.51
2023-05-09T22:28:07.206Z,4.42
2023-05-09T22:33:10.014Z,4.35
2023-05-09T22:38:12.839Z,4.28
2023-05-09T22:43:15.671Z,4.20
2023-05-09T22:48:18.513Z,4.12
2023-05-09T22:53:21.342Z,4.04
2023-05-09T22:58:24.222Z,3.97
2023-05-09T23:03:27.242Z,3.91
2023-05-09T23:08:31.985Z,3.87
2023-05-09T23:13:34.802Z,3.82
2023-05-09T23:18:37.642Z,3.74
2023-05-09T23:23:40.607Z,3.63
2023-05-09T23:28:43.399Z,3.52
2023-05-09T23:33:46.338Z,3.40
2023-05-09T23:38:49.175Z,3.29
2023-05-09T23:43:52.110Z,3.20
2023-05-09T23:48:55.754Z,3.20
2023-05-09T23:53:58.585Z,3.25
2023-05-09T23:59:01.413Z,3.30
